createdAt,value
2018-09-26T00:02:08.698Z,97700.21
2018-09-26T00:04:48.504Z,97694.34
2018-09-26T00:07:18.308Z,97685.78
2018-09-26T00:09:48.090Z,97685.76
2018-09-26T00:12:17.920Z,97677.78
2018-09-26T00:14:47.660Z,97683.61
2018-09-26T00:17:17.456Z,97679.90
2018-09-26T00:19:47.204Z,97678.89
2018-09-26T00:22:17.000Z,97679.11
2018-09-26T00:24:46.752Z,97684.95
2018-09-26T00:27:16.520Z,97677.68
2018-09-26T00:29:46.293Z,97674.92
2018-09-26T00:32:16.070Z,97669.64
2018-09-26T00:34:45.854Z,97666.16
2018-09-26T00:37:15.633Z,97667.98
2018-09-26T00:39:45.582Z,97659.15
2018-09-26T00:42:15.383Z,97656.66
2018-09-26T00:44:45.155Z,97657.70
2018-09-26T00:47:14.938Z,97651.90
2018-09-26T00:49:44.746Z,97648.94
2018-09-26T00:52:14.482Z,97654.98
2018-09-26T00:54:44.232Z,97658.31
2018-09-26T00:57:14.047Z,97648.56
2018-09-26T00:59:43.773Z,97647.69
2018-09-26T01:02:13.546Z,97643.38
2018-09-26T01:04:43.340Z,97648.50
2018-09-26T01:07:13.112Z,97649.84
2018-09-26T01:09:42.903Z,97654.37
2018-09-26T01:12:12.688Z,97645.95
2018-09-26T01:14:42.855Z,97644.19
2018-09-26T01:17:12.826Z,97646.89
2018-09-26T01:19:42.540Z,97644.71
2018-09-26T01:22:12.330Z,97635.33
2018-09-26T01:24:42.142Z,97636.44
2018-09-26T01:27:11.962Z,97635.61
2018-09-26T01:29:41.687Z,97632.05
2018-09-26T01:32:11.452Z,97624.46
2018-09-26T01:34:41.216Z,97615.95
2018-09-26T01:37:10.979Z,97619.23
2018-09-26T01:39:40.743Z,97622.19
2018-09-26T01:42:10.519Z,97624.42
2018-09-26T01:44:40.271Z,97603.33
2018-09-26T01:47:10.003Z,97595.24
2018-09-26T01:49:39.849Z,97587.07
2018-09-26T01:52:09.619Z,97581.25
2018-09-26T01:54:39.459Z,97567.09
2018-09-26T01:57:09.232Z,97574.48
2018-09-26T01:59:38.978Z,97574.41
2018-09-26T02:02:08.735Z,97573.55
2018-09-26T02:04:38.507Z,97569.95
2018-09-26T02:07:08.353Z,97572.25
2018-09-26T02:09:38.111Z,97573.05
2018-09-26T02:12:08.715Z,97566.78
2018-09-26T02:14:38.463Z,97556.12
2018-09-26T02:17:08.253Z,97549.67
2018-09-26T02:19:38.003Z,97553.18
2018-09-26T02:22:07.765Z,97555.41
2018-09-26T02:24:37.621Z,97560.27
2018-09-26T02:27:07.488Z,97553.27
2018-09-26T02:29:37.257Z,97554.87
2018-09-26T02:32:07.119Z,97549.27
2018-09-26T02:34:36.887Z,97543.39
2018-09-26T02:37:09.120Z,97545.54
2018-09-26T02:39:39.958Z,97547.78
2018-09-26T02:42:09.781Z,97551.83
2018-09-26T02:44:39.515Z,97558.92
2018-09-26T02:47:09.635Z,97558.89
2018-09-26T02:49:39.410Z,97559.56
2018-09-26T02:52:09.265Z,97558.11
2018-09-26T02:54:39.027Z,97560.44
2018-09-26T02:57:08.973Z,97565.34
2018-09-26T02:59:38.696Z,97567.81
2018-09-26T03:02:08.685Z,97562.31
2018-09-26T03:04:38.491Z,97560.45
2018-09-26T03:07:08.332Z,97553.63
2018-09-26T03:09:38.108Z,97549.00
2018-09-26T03:12:08.121Z,97552.50
2018-09-26T03:14:37.913Z,97553.02
2018-09-26T03:17:07.813Z,97553.89
2018-09-26T03:19:37.657Z,97554.69
2018-09-26T03:22:07.485Z,97549.56
2018-09-26T03:24:37.274Z,97557.91
2018-09-26T03:27:07.082Z,97553.63
2018-09-26T03:29:36.893Z,97553.83
2018-09-26T03:32:06.710Z,97557.73
2018-09-26T03:34:36.561Z,97563.38
2018-09-26T03:37:06.595Z,97568.40
2018-09-26T03:39:36.387Z,97569.77
2018-09-26T03:42:06.360Z,97567.69
2018-09-26T03:44:36.105Z,97574.05
2018-09-26T03:47:05.878Z,97572.44
2018-09-26T03:49:35.634Z,97567.88
2018-09-26T03:52:05.389Z,97574.20
2018-09-26T03:54:35.155Z,97577.37
2018-09-26T03:57:05.064Z,97591.38
2018-09-26T03:59:35.711Z,97596.56
2018-09-26T04:02:05.557Z,97588.60
2018-09-26T04:04:35.423Z,97595.98
2018-09-26T04:07:05.265Z,97597.06
2018-09-26T04:09:35.014Z,97599.10
2018-09-26T04:12:04.785Z,97597.75
2018-09-26T04:14:34.562Z,97592.90
2018-09-26T04:17:04.492Z,97600.24
2018-09-26T04:19:34.319Z,97605.14
2018-09-26T04:22:04.216Z,97610.32
2018-09-26T04:24:33.961Z,97610.02
2018-09-26T04:27:03.851Z,97606.16
2018-09-26T04:29:33.763Z,97603.13
2018-09-26T04:32:03.710Z,97602.66
2018-09-26T04:34:33.483Z,97603.86
2018-09-26T04:37:03.359Z,97613.02
2018-09-26T04:39:33.166Z,97621.30
2018-09-26T04:42:03.063Z,97614.52
2018-09-26T04:44:32.826Z,97615.91
2018-09-26T04:47:02.607Z,97612.00
2018-09-26T04:49:32.334Z,97610.43
2018-09-26T04:52:02.374Z,97608.52
2018-09-26T04:54:32.144Z,97612.77
2018-09-26T04:57:01.872Z,97614.30
2018-09-26T04:59:31.650Z,97609.52
2018-09-26T05:02:01.764Z,97602.84
2018-09-26T05:04:31.499Z,97590.48
2018-09-26T05:07:01.272Z,97600.42
2018-09-26T05:09:31.026Z,97607.74
2018-09-26T05:12:00.818Z,97612.39
2018-09-26T05:14:30.597Z,97606.19
2018-09-26T05:17:00.352Z,97606.25
2018-09-26T05:19:30.156Z,97604.36
2018-09-26T05:21:59.900Z,97614.53
2018-09-26T05:24:29.626Z,97615.17
2018-09-26T05:26:59.394Z,97627.70
2018-09-26T05:29:29.164Z,97631.28
2018-09-26T05:31:58.924Z,97640.57
2018-09-26T05:34:28.826Z,97644.86
2018-09-26T05:36:58.612Z,97644.56
2018-09-26T05:39:28.450Z,97642.47
2018-09-26T05:41:58.206Z,97646.31
2018-09-26T05:44:27.936Z,97654.95
2018-09-26T05:46:57.744Z,97652.76
2018-09-26T05:49:27.532Z,97651.59
2018-09-26T05:51:57.273Z,97650.87
2018-09-26T05:54:27.020Z,97646.85
2018-09-26T05:56:56.810Z,97649.55
2018-09-26T05:59:26.755Z,97641.59
2018-09-26T06:01:56.728Z,97648.56
2018-09-26T06:04:26.502Z,97649.70
2018-09-26T06:06:56.288Z,97651.60
2018-09-26T06:09:26.118Z,97649.62
2018-09-26T06:11:55.859Z,97653.31
2018-09-26T06:14:25.797Z,97657.77
2018-09-26T06:16:55.530Z,97664.31
2018-09-26T06:19:25.768Z,97671.09
2018-09-26T06:21:55.508Z,97681.27
2018-09-26T06:24:25.306Z,97688.20
2018-09-26T06:26:55.252Z,97685.34
2018-09-26T06:29:25.238Z,97688.52
2018-09-26T06:31:55.126Z,97692.38
2018-09-26T06:34:24.841Z,97701.61
2018-09-26T06:36:54.554Z,97709.53
2018-09-26T06:39:24.325Z,97707.35
2018-09-26T06:41:54.186Z,97695.08
2018-09-26T06:44:24.028Z,97708.66
2018-09-26T06:46:54.044Z,97711.10
2018-09-26T06:49:23.835Z,97715.51
2018-09-26T06:51:53.596Z,97720.55
2018-09-26T06:54:23.364Z,97722.80
2018-09-26T06:56:53.256Z,97724.25
2018-09-26T06:59:23.026Z,97736.62
2018-09-26T07:01:52.776Z,97733.14
2018-09-26T07:04:22.527Z,97736.84
2018-09-26T07:06:52.299Z,97741.31
2018-09-26T07:09:22.043Z,97737.33
2018-09-26T07:11:51.878Z,97737.01
2018-09-26T07:15:50.998Z,97740.55
2018-09-26T07:18:20.788Z,97745.05
2018-09-26T07:20:50.551Z,97753.09
2018-09-26T07:23:20.361Z,97762.60
2018-09-26T07:25:50.302Z,97754.78
2018-09-26T07:28:20.095Z,97755.18
2018-09-26T07:30:49.861Z,97764.40
2018-09-26T07:33:19.631Z,97769.42
2018-09-26T07:35:49.397Z,97774.70
2018-09-26T07:38:19.755Z,97780.74
2018-09-26T07:40:50.495Z,97771.95
2018-09-26T07:43:21.091Z,97774.83
2018-09-26T07:45:51.821Z,97772.75
2018-09-26T07:48:22.369Z,97778.88
2018-09-26T07:50:52.838Z,97776.45
2018-09-26T07:53:23.153Z,97774.55
2018-09-26T07:55:53.475Z,97780.83
2018-09-26T07:58:23.751Z,97784.00
2018-09-26T08:00:54.091Z,97787.73
2018-09-26T08:03:24.412Z,97788.89
2018-09-26T08:05:54.776Z,97794.17
2018-09-26T08:08:25.243Z,97793.64
2018-09-26T08:10:55.591Z,97791.25
2018-09-26T08:13:25.916Z,97787.52
2018-09-26T08:15:56.261Z,97781.83
2018-09-26T08:18:26.597Z,97791.56
2018-09-26T08:20:56.590Z,97789.73
2018-09-26T08:23:26.374Z,97794.67
2018-09-26T08:25:56.142Z,97791.20
2018-09-26T08:28:25.920Z,97796.59
2018-09-26T08:30:55.686Z,97790.05
2018-09-26T08:33:25.478Z,97792.91
2018-09-26T08:35:55.250Z,97794.34
2018-09-26T08:38:25.028Z,97792.94
2018-09-26T08:40:54.907Z,97779.92
2018-09-26T08:43:25.050Z,97785.64
2018-09-26T08:45:54.831Z,97784.44
2018-09-26T08:48:24.611Z,97788.20
2018-09-26T08:50:54.379Z,97790.81
2018-09-26T08:53:24.253Z,97801.33
2018-09-26T08:55:54.086Z,97798.91
2018-09-26T08:58:23.825Z,97802.17
2018-09-26T09:00:54.757Z,97803.21
2018-09-26T09:03:24.502Z,97796.93
2018-09-26T09:05:54.351Z,97797.95
2018-09-26T09:08:24.071Z,97785.13
2018-09-26T09:10:53.843Z,97785.87
2018-09-26T09:13:23.589Z,97786.23
2018-09-26T09:15:53.361Z,97783.34
2018-09-26T09:18:23.141Z,97783.42
2018-09-26T09:20:52.905Z,97779.84
2018-09-26T09:23:22.646Z,97781.30
2018-09-26T09:25:52.395Z,97773.81
2018-09-26T09:28:22.143Z,97776.86
2018-09-26T09:30:52.570Z,97784.14
2018-09-26T09:33:22.314Z,97785.58
2018-09-26T09:35:52.046Z,97777.03
2018-09-26T09:38:21.798Z,97770.58
2018-09-26T09:40:51.776Z,97772.31
2018-09-26T09:43:21.926Z,97764.47
2018-09-26T09:45:51.829Z,97765.87
2018-09-26T09:48:21.654Z,97766.86
2018-09-26T09:50:51.402Z,97762.08
2018-09-26T09:53:21.288Z,97756.52
2018-09-26T09:55:52.233Z,97756.59
2018-09-26T09:58:22.620Z,97759.75
2018-09-26T10:00:57.578Z,97762.44
2018-09-26T10:03:27.350Z,97765.08
2018-09-26T10:05:57.136Z,97769.36
2018-09-26T10:08:26.892Z,97764.96
2018-09-26T10:10:56.632Z,97759.21
2018-09-26T10:13:26.404Z,97763.75
2018-09-26T10:15:56.182Z,97765.17
2018-09-26T10:18:25.994Z,97762.75
2018-09-26T10:20:55.632Z,97758.63
2018-09-26T10:23:25.720Z,97755.34
2018-09-26T10:25:55.398Z,97745.53
2018-09-26T10:28:25.089Z,97747.55
2018-09-26T10:30:54.710Z,97740.16
2018-09-26T10:33:24.366Z,97741.06
2018-09-26T10:35:54.170Z,97747.28
2018-09-26T10:38:23.905Z,97737.00
2018-09-26T10:40:54.033Z,97737.09
2018-09-26T10:43:23.923Z,97735.25
2018-09-26T10:45:53.636Z,97736.13
2018-09-26T10:48:23.295Z,97732.81
2018-09-26T10:50:52.973Z,97731.91
2018-09-26T10:53:22.886Z,97732.13
2018-09-26T10:55:52.543Z,97726.96
2018-09-26T10:58:22.305Z,97721.70
2018-09-26T11:00:52.036Z,97729.16
2018-09-26T11:03:21.739Z,97730.94
2018-09-26T11:05:51.415Z,97723.91
2018-09-26T11:08:21.188Z,97723.70
2018-09-26T11:10:51.119Z,97721.50
2018-09-26T11:13:21.760Z,97720.35
2018-09-26T11:15:51.486Z,97712.89
2018-09-26T11:18:21.250Z,97710.33
2018-09-26T11:20:51.222Z,97702.61
2018-09-26T11:23:20.853Z,97696.93
2018-09-26T11:25:50.566Z,97685.70
2018-09-26T11:28:20.239Z,97691.42
2018-09-26T11:30:50.149Z,97692.41
2018-09-26T11:33:19.901Z,97683.53
2018-09-26T11:35:49.705Z,97675.05
2018-09-26T11:38:19.462Z,97673.67
2018-09-26T11:40:49.259Z,97665.02
2018-09-26T11:43:27.468Z,97657.73
2018-09-26T11:45:57.241Z,97662.28
2018-09-26T11:48:26.921Z,97663.05
2018-09-26T11:51:05.485Z,97663.85
2018-09-26T11:53:35.151Z,97653.20
2018-09-26T11:56:04.890Z,97656.89
2018-09-26T11:58:34.708Z,97653.36
2018-09-26T12:01:04.563Z,97656.89
2018-09-26T12:03:34.192Z,97652.34
2018-09-26T12:06:04.080Z,97651.72
2018-09-26T12:08:33.796Z,97651.34
2018-09-26T12:11:03.504Z,97656.02
2018-09-26T12:13:33.213Z,97652.63
2018-09-26T12:16:02.887Z,97655.17
2018-09-26T12:18:32.561Z,97650.28
2018-09-26T12:21:03.117Z,97653.41
2018-09-26T12:23:32.791Z,97650.87
2018-09-26T12:26:03.105Z,97648.75
2018-09-26T12:28:33.281Z,97641.74
2018-09-26T12:31:03.571Z,97645.39
2018-09-26T12:33:33.803Z,97641.28
2018-09-26T12:36:04.420Z,97647.29
2018-09-26T12:38:34.849Z,97645.02
2018-09-26T12:41:05.205Z,97651.71
2018-09-26T12:43:35.470Z,97644.02
2018-09-26T12:46:05.770Z,97642.03
2018-09-26T12:48:36.192Z,97643.36
2018-09-26T12:51:06.779Z,97650.56
2018-09-26T12:53:37.011Z,97645.63
2018-09-26T12:56:07.468Z,97639.39
2018-09-26T12:58:37.752Z,97643.25
2018-09-26T13:01:09.768Z,97630.87
2018-09-26T13:03:40.208Z,97634.14
2018-09-26T13:06:10.475Z,97632.00
2018-09-26T13:08:41.225Z,97619.78
2018-09-26T13:11:11.547Z,97615.02
2018-09-26T13:13:41.816Z,97614.55
2018-09-26T13:16:12.262Z,97611.14
2018-09-26T13:18:42.699Z,97607.30
2018-09-26T13:21:13.058Z,97607.50
2018-09-26T13:23:43.306Z,97599.69
2018-09-26T13:26:13.662Z,97607.86
2018-09-26T13:28:44.198Z,97601.88
2018-09-26T13:31:14.463Z,97601.45
2018-09-26T13:33:44.736Z,97597.36
2018-09-26T13:36:15.022Z,97601.52
2018-09-26T13:38:45.454Z,97590.94
2018-09-26T13:41:15.679Z,97587.80
2018-09-26T13:43:45.951Z,97584.61
2018-09-26T13:46:16.297Z,97577.16
2018-09-26T13:48:46.660Z,97572.94
2018-09-26T13:51:16.936Z,97573.11
2018-09-26T13:53:47.188Z,97574.31
2018-09-26T13:56:17.510Z,97566.35
2018-09-26T13:58:47.873Z,97556.63
2018-09-26T14:01:18.077Z,97563.25
2018-09-26T14:03:48.465Z,97560.02
2018-09-26T14:06:18.680Z,97558.73
2018-09-26T14:08:49.306Z,97560.25
2018-09-26T14:11:19.860Z,97561.82
2018-09-26T14:13:50.113Z,97565.62
2018-09-26T14:16:20.352Z,97562.64
2018-09-26T14:18:50.623Z,97561.54
2018-09-26T14:21:21.166Z,97561.59
2018-09-26T14:23:51.396Z,97562.00
2018-09-26T14:26:21.664Z,97561.12
2018-09-26T14:28:52.061Z,97556.18
2018-09-26T14:31:22.304Z,97552.90
2018-09-26T14:33:52.592Z,97553.11
2018-09-26T14:36:23.885Z,97555.61
2018-09-26T14:38:54.266Z,97544.24
2018-09-26T14:41:24.662Z,97553.46
2018-09-26T14:43:55.086Z,97551.89
2018-09-26T14:46:25.376Z,97553.75
2018-09-26T14:48:55.574Z,97547.94
2018-09-26T14:51:25.941Z,97550.70
2018-09-26T14:53:56.190Z,97549.34
2018-09-26T14:56:26.551Z,97555.30
2018-09-26T14:58:56.910Z,97552.59
2018-09-26T15:01:27.124Z,97548.16
2018-09-26T15:03:57.408Z,97546.10
2018-09-26T15:06:27.652Z,97544.78
2018-09-26T15:08:57.881Z,97544.75
2018-09-26T15:11:28.151Z,97535.99
2018-09-26T15:13:58.382Z,97549.89
2018-09-26T15:16:28.652Z,97538.63
2018-09-26T15:18:58.857Z,97537.16
2018-09-26T15:21:29.168Z,97538.93
2018-09-26T15:23:59.403Z,97536.27
2018-09-26T15:26:29.611Z,97538.52
2018-09-26T15:28:59.833Z,97533.50
2018-09-26T15:31:30.090Z,97533.60
2018-09-26T15:34:00.403Z,97534.03
2018-09-26T15:36:30.636Z,97538.08
2018-09-26T15:39:00.893Z,97540.22
2018-09-26T15:41:31.182Z,97527.47
2018-09-26T15:44:01.579Z,97532.08
2018-09-26T15:46:32.219Z,97527.81
2018-09-26T15:49:02.445Z,97526.18
2018-09-26T15:51:32.723Z,97532.11
2018-09-26T15:54:02.960Z,97533.94
2018-09-26T15:56:33.189Z,97529.05
2018-09-26T15:59:03.392Z,97530.69
2018-09-26T16:01:33.644Z,97528.37
2018-09-26T16:04:03.862Z,97526.37
2018-09-26T16:06:34.094Z,97528.14
2018-09-26T16:09:05.334Z,97527.92
2018-09-26T16:11:35.604Z,97528.02
2018-09-26T16:14:05.877Z,97531.39
2018-09-26T16:16:36.291Z,97534.73
2018-09-26T16:19:06.578Z,97532.19
2018-09-26T16:21:36.894Z,97538.60
2018-09-26T16:24:07.143Z,97534.27
2018-09-26T16:26:37.468Z,97536.66
2018-09-26T16:29:08.267Z,97536.95
2018-09-26T16:31:39.756Z,97539.94
2018-09-26T16:34:10.185Z,97538.09
2018-09-26T16:36:40.622Z,97544.30
2018-09-26T16:39:13.844Z,97548.92
2018-09-26T16:41:44.743Z,97557.89
2018-09-26T16:44:14.505Z,97562.05
2018-09-26T16:46:44.590Z,97559.69
2018-09-26T16:49:14.267Z,97556.34
2018-09-26T16:51:43.907Z,97553.79
2018-09-26T16:54:13.703Z,97557.52
2018-09-26T16:56:43.681Z,97553.18
2018-09-26T16:59:14.398Z,97547.91
2018-09-26T17:01:44.243Z,97554.40
2018-09-26T17:04:14.016Z,97551.66
2018-09-26T17:06:43.943Z,97555.78
2018-09-26T17:09:13.856Z,97560.28
2018-09-26T17:11:43.603Z,97565.38
2018-09-26T17:14:13.462Z,97563.77
2018-09-26T17:16:43.497Z,97571.20
2018-09-26T17:19:13.357Z,97568.44
2018-09-26T17:22:17.581Z,97568.23
2018-09-26T17:24:47.445Z,97564.08
2018-09-26T17:27:17.219Z,97561.10
2018-09-26T17:29:47.043Z,97563.44
2018-09-26T17:32:16.814Z,97560.62
2018-09-26T17:34:46.767Z,97561.58
2018-09-26T17:37:16.623Z,97565.73
2018-09-26T17:39:46.595Z,97566.47
2018-09-26T17:42:16.351Z,97563.30
2018-09-26T17:44:46.266Z,97565.41
2018-09-26T17:47:15.996Z,97561.45
2018-09-26T17:49:45.667Z,97557.91
2018-09-26T17:52:15.377Z,97560.25
2018-09-26T17:54:45.249Z,97559.25
2018-09-26T17:57:15.195Z,97552.87
2018-09-26T17:59:44.947Z,97553.56
2018-09-26T18:02:14.705Z,97560.36
2018-09-26T18:04:44.503Z,97561.08
2018-09-26T18:07:14.199Z,97565.33
2018-09-26T18:09:43.896Z,97564.35
2018-09-26T18:12:13.583Z,97568.61
2018-09-26T18:14:43.283Z,97569.32
2018-09-26T18:17:13.130Z,97571.41
2018-09-26T18:19:43.025Z,97572.89
2018-09-26T18:22:12.859Z,97579.09
2018-09-26T18:24:42.763Z,97584.56
2018-09-26T18:27:12.558Z,97573.09
2018-09-26T18:29:42.248Z,97574.64
2018-09-26T18:32:11.947Z,97577.38
2018-09-26T18:34:41.656Z,97573.56
2018-09-26T18:37:11.458Z,97572.98
2018-09-26T18:39:41.146Z,97573.50
2018-09-26T18:42:10.894Z,97572.22
2018-09-26T18:44:40.701Z,97575.08
2018-09-26T18:47:10.802Z,97572.48
2018-09-26T18:49:40.505Z,97575.13
2018-09-26T18:52:10.834Z,97579.80
2018-09-26T18:54:40.725Z,97568.45
2018-09-26T18:57:10.901Z,97567.94
2018-09-26T18:59:40.753Z,97577.42
2018-09-26T19:02:10.788Z,97573.34
2018-09-26T19:04:40.613Z,97578.59
2018-09-26T19:07:10.516Z,97574.08
2018-09-26T19:09:40.261Z,97576.21
2018-09-26T19:12:10.131Z,97578.88
2018-09-26T19:14:39.949Z,97581.41
2018-09-26T19:17:09.672Z,97581.50
2018-09-26T19:19:40.745Z,97589.56
2018-09-26T19:22:10.517Z,97595.92
2018-09-26T19:24:40.300Z,97594.13
2018-09-26T19:27:11.188Z,97595.66
2018-09-26T19:29:41.099Z,97594.44
2018-09-26T19:32:10.822Z,97595.97
2018-09-26T19:34:40.569Z,97595.97
2018-09-26T19:37:10.248Z,97601.81
2018-09-26T19:39:41.390Z,97593.28
2018-09-26T19:42:11.220Z,97601.13
2018-09-26T19:44:40.976Z,97599.09
2018-09-26T19:47:10.716Z,97605.83
2018-09-26T19:49:40.633Z,97597.63
2018-09-26T19:52:10.334Z,97605.27
2018-09-26T19:54:40.272Z,97604.50
2018-09-26T19:57:09.948Z,97590.75
2018-09-26T19:59:40.389Z,97606.24
2018-09-26T20:02:10.193Z,97605.22
2018-09-26T20:04:40.920Z,97605.38
2018-09-26T20:07:10.614Z,97610.64
2018-09-26T20:09:40.313Z,97607.42
2018-09-26T20:12:10.108Z,97611.94
2018-09-26T20:14:39.835Z,97607.58
2018-09-26T20:17:09.553Z,97605.86
2018-09-26T20:19:40.048Z,97610.68
2018-09-26T20:22:09.960Z,97605.13
2018-09-26T20:24:39.757Z,97609.67
2018-09-26T20:27:09.698Z,97613.99
2018-09-26T20:29:39.711Z,97608.64
2018-09-26T20:32:09.492Z,97609.30
2018-09-26T20:34:39.388Z,97616.08
2018-09-26T20:37:09.138Z,97616.22
2018-09-26T20:39:38.934Z,97605.33
2018-09-26T20:42:09.154Z,97611.73
2018-09-26T20:44:38.978Z,97607.30
2018-09-26T20:47:08.648Z,97610.28
2018-09-26T20:49:38.279Z,97605.19
2018-09-26T20:52:08.229Z,97601.45
2018-09-26T20:54:37.936Z,97607.52
2018-09-26T20:57:07.696Z,97607.42
2018-09-26T20:59:37.688Z,97604.70
2018-09-26T21:02:07.488Z,97606.11
2018-09-26T21:04:37.166Z,97610.00
2018-09-26T21:07:07.363Z,97609.26
2018-09-26T21:09:37.215Z,97602.14
2018-09-26T21:12:06.903Z,97600.02
2018-09-26T21:14:36.578Z,97611.97
2018-09-26T21:17:06.287Z,97608.28
2018-09-26T21:19:35.979Z,97605.53
2018-09-26T21:22:05.659Z,97605.87
2018-09-26T21:24:35.355Z,97610.09
2018-09-26T21:27:05.038Z,97612.36
2018-09-26T21:29:34.677Z,97610.42
2018-09-26T21:32:04.716Z,97602.61
2018-09-26T21:34:34.436Z,97605.33
2018-09-26T21:37:04.088Z,97603.78
2018-09-26T21:39:33.759Z,97601.07
2018-09-26T21:42:03.403Z,97603.55
2018-09-26T21:44:34.069Z,97603.08
2018-09-26T21:47:03.943Z,97610.13
2018-09-26T21:49:33.581Z,97611.12
2018-09-26T21:52:03.242Z,97604.81
2018-09-26T21:54:32.933Z,97605.15
2018-09-26T21:57:02.756Z,97603.65
2018-09-26T21:59:32.444Z,97602.55
2018-09-26T22:02:02.868Z,97605.08
2018-09-26T22:04:33.229Z,97596.94
2018-09-26T22:07:03.863Z,97599.57
2018-09-26T22:09:34.165Z,97591.91
2018-09-26T22:12:04.511Z,97588.88
2018-09-26T22:14:34.800Z,97595.80
2018-09-26T22:17:05.127Z,97597.28
2018-09-26T22:19:35.406Z,97596.39
2018-09-26T22:22:05.695Z,97597.33
2018-09-26T22:24:36.041Z,97613.80
2018-09-26T22:27:06.423Z,97609.64
2018-09-26T22:29:36.712Z,97615.11
2018-09-26T22:32:07.009Z,97607.47
2018-09-26T22:34:37.337Z,97606.53
2018-09-26T22:37:07.692Z,97599.88
2018-09-26T22:39:38.056Z,97598.19
2018-09-26T22:42:08.367Z,97595.83
2018-09-26T22:44:38.686Z,97601.78
2018-09-26T22:47:08.948Z,97600.24
2018-09-26T22:49:39.247Z,97607.22
2018-09-26T22:52:09.572Z,97607.22
2018-09-26T22:54:39.908Z,97596.52
2018-09-26T22:57:10.231Z,97604.09
2018-09-26T22:59:40.735Z,97600.24
2018-09-26T23:02:11.073Z,97594.59
2018-09-26T23:04:41.345Z,97595.52
2018-09-26T23:07:11.937Z,97590.63
2018-09-26T23:09:42.498Z,97589.30
2018-09-26T23:12:12.885Z,97594.31
2018-09-26T23:14:43.203Z,97593.31
2018-09-26T23:17:13.483Z,97592.84
2018-09-26T23:19:43.771Z,97588.98
2018-09-26T23:22:14.044Z,97587.80
2018-09-26T23:24:44.309Z,97585.20
2018-09-26T23:27:14.615Z,97590.70
2018-09-26T23:29:44.899Z,97590.11
2018-09-26T23:32:15.149Z,97586.49
2018-09-26T23:34:45.493Z,97583.53
2018-09-26T23:37:15.766Z,97576.16
2018-09-26T23:39:46.074Z,97584.75
2018-09-26T23:42:16.457Z,97580.94
2018-09-26T23:44:46.743Z,97575.23
2018-09-26T23:47:17.015Z,97580.09
2018-09-26T23:49:47.323Z,97575.88
2018-09-26T23:52:17.829Z,97577.30
2018-09-26T23:54:48.227Z,97573.55
2018-09-26T23:57:18.585Z,97571.94
2018-09-26T23:59:49.719Z,97570.34
